createdAt,value
2023-03-13T00:00:03.595Z,1008.8
2023-03-13T00:05:03.598Z,1008.73
2023-03-13T00:10:03.091Z,1008.65
2023-03-13T00:15:02.919Z,1008.69
2023-03-13T00:20:02.677Z,1008.59
2023-03-13T00:25:03.628Z,1008.54
2023-03-13T00:30:03.406Z,1008.58
2023-03-13T00:35:02.978Z,1008.52
2023-03-13T00:40:02.731Z,1008.52
2023-03-13T00:45:03.483Z,1008.48
2023-03-13T00:50:03.157Z,1008.55
2023-03-13T00:55:03.031Z,1008.49
2023-03-13T01:00:03.534Z,1008.38
2023-03-13T01:05:03.300Z,1008.23
2023-03-13T01:10:03.057Z,1008.23
2023-03-13T01:15:02.920Z,1008.16
2023-03-13T01:20:02.623Z,1008.11
2023-03-13T01:25:03.515Z,1008.18
2023-03-13T01:30:03.196Z,1008.1
2023-03-13T01:35:03.156Z,1008.08
2023-03-13T01:40:03.149Z,1008.03
2023-03-13T01:45:03.140Z,1007.98
2023-03-13T01:50:02.944Z,1007.86
2023-03-13T01:55:04.009Z,1007.81
2023-03-13T02:00:02.773Z,1007.75
2023-03-13T02:05:03.382Z,1007.7
2023-03-13T02:10:03.393Z,1007.7
2023-03-13T02:15:03.562Z,1007.54
2023-03-13T02:20:03.206Z,1007.44
2023-03-13T02:25:02.972Z,1007.43
2023-03-13T02:30:02.918Z,1007.29
2023-03-13T02:35:03.531Z,1007.23
2023-03-13T02:40:03.228Z,1007.16
2023-03-13T02:45:02.926Z,1007.19
2023-03-13T02:50:03.666Z,1007.2
2023-03-13T02:55:03.239Z,1007.16
2023-03-13T03:00:03.581Z,1007.03
2023-03-13T03:05:03.441Z,1006.91
2023-03-13T03:10:03.290Z,1006.93
2023-03-13T03:15:02.962Z,1006.82
2023-03-13T03:20:02.774Z,1006.68
2023-03-13T03:25:02.694Z,1006.73
2023-03-13T03:30:03.279Z,1006.55
2023-03-13T03:35:03.342Z,1006.54
2023-03-13T03:40:03.099Z,1006.48
2023-03-13T03:45:03.046Z,1006.34
2023-03-13T03:50:03.572Z,1006.29
2023-03-13T03:55:03.927Z,1006.25
2023-03-13T04:00:03.571Z,1006.24
2023-03-13T04:05:03.412Z,1006.17
2023-03-13T04:10:03.506Z,1006.03
2023-03-13T04:15:03.146Z,1006
2023-03-13T04:20:02.929Z,1005.89
2023-03-13T04:25:03.617Z,1005.85
2023-03-13T04:30:02.930Z,1005.84
2023-03-13T04:35:03.874Z,1005.5
2023-03-13T04:40:03.522Z,1005.47
2023-03-13T04:45:03.270Z,1005.27
2023-03-13T04:55:03.475Z,1005.14
2023-03-13T05:00:02.727Z,1004.97
2023-03-13T05:05:03.315Z,1004.95
2023-03-13T05:10:02.753Z,1004.84
2023-03-13T05:15:03.591Z,1004.61
2023-03-13T05:20:03.451Z,1004.55
2023-03-13T05:25:02.979Z,1004.47
2023-03-13T05:30:03.191Z,1004.33
2023-03-13T05:35:03.139Z,1004.16
2023-03-13T05:40:03.140Z,1004.07
2023-03-13T05:45:02.974Z,1003.96
2023-03-13T05:50:02.694Z,1003.98
2023-03-13T05:55:03.859Z,1003.88
2023-03-13T06:00:03.264Z,1003.79
2023-03-13T06:05:03.385Z,1003.58
2023-03-13T06:10:02.872Z,1003.34
2023-03-13T06:15:03.968Z,1003.2
2023-03-13T06:20:03.470Z,1003.15
2023-03-13T06:25:03.579Z,1003.07
2023-03-13T06:30:03.288Z,1003.04
2023-03-13T06:35:02.881Z,1003.11
2023-03-13T06:40:03.098Z,1002.87
2023-03-13T06:45:02.922Z,1002.77
2023-03-13T06:50:02.778Z,1002.78
2023-03-13T06:55:03.824Z,1002.85
2023-03-13T07:00:03.412Z,1002.87
2023-03-13T07:05:03.242Z,1002.67
2023-03-13T07:10:03.354Z,1002.69
2023-03-13T07:15:02.844Z,1002.76
2023-03-13T07:20:03.856Z,1002.67
2023-03-13T07:25:03.360Z,1002.61
2023-03-13T07:30:03.394Z,1002.56
2023-03-13T07:35:02.684Z,1002.43
2023-03-13T07:40:02.714Z,1002.39
2023-03-13T07:45:03.451Z,1002.41
2023-03-13T07:50:03.629Z,1002.36
2023-03-13T07:55:03.030Z,1002.24
2023-03-13T08:00:03.658Z,1002.3
2023-03-13T08:05:03.454Z,1002.14
2023-03-13T08:10:03.201Z,1002.21
2023-03-13T08:15:02.992Z,1002.16
2023-03-13T08:20:03.314Z,1002.1
2023-03-13T08:25:03.467Z,1002.06
2023-03-13T08:30:03.141Z,1001.96
2023-03-13T08:35:03.174Z,1001.99
2023-03-13T08:40:03.084Z,1002.01
2023-03-13T08:45:03.110Z,1001.96
2023-03-13T08:50:02.933Z,1001.82
2023-03-13T08:55:02.934Z,1001.9
2023-03-13T09:00:03.574Z,1001.84
2023-03-13T09:05:03.361Z,1001.77
2023-03-13T09:10:03.387Z,1001.71
2023-03-13T09:15:03.218Z,1001.72
2023-03-13T09:20:03.327Z,1001.83
2023-03-13T09:25:03.057Z,1001.91
2023-03-13T09:30:02.762Z,1002.01
2023-03-13T09:35:03.467Z,1001.98
2023-03-13T09:40:03.254Z,1001.83
2023-03-13T09:45:03.194Z,1001.69
2023-03-13T09:50:03.202Z,1001.8
2023-03-13T09:55:03.528Z,1001.73
2023-03-13T10:00:03.009Z,1001.76
2023-03-13T10:05:03.604Z,1001.77
2023-03-13T10:10:03.542Z,1001.74
2023-03-13T10:15:03.281Z,1001.77
2023-03-13T10:20:03.066Z,1001.77
2023-03-13T10:25:02.735Z,1001.62
2023-03-13T10:30:03.607Z,1001.61
2023-03-13T10:35:03.286Z,1001.59
2023-03-13T10:40:03.532Z,1001.5
2023-03-13T10:45:02.959Z,1001.5
2023-03-13T10:50:02.785Z,1001.39
2023-03-13T10:55:03.915Z,1001.33
2023-03-13T11:00:04.794Z,1001.23
2023-03-13T11:05:02.987Z,1001.05
2023-03-13T11:10:02.838Z,1000.98
2023-03-13T11:15:03.738Z,1000.85
2023-03-13T11:20:03.345Z,1000.84
2023-03-13T11:25:03.152Z,1000.65
2023-03-13T11:30:03.124Z,1000.72
2023-03-13T11:35:03.447Z,1000.56
2023-03-13T11:40:03.382Z,1000.51
2023-03-13T11:45:03.317Z,1000.3
2023-03-13T11:50:02.726Z,1000.26
2023-03-13T11:55:03.457Z,1000.31
2023-03-13T12:00:02.921Z,1000.43
2023-03-13T12:05:03.059Z,1000.31
2023-03-13T12:10:03.511Z,1000.59
2023-03-13T12:15:02.756Z,1000.48
2023-03-13T12:20:02.715Z,1000.53
2023-03-13T12:25:07.402Z,1000.38
2023-03-13T12:30:03.197Z,1000.5
2023-03-13T12:35:04.648Z,1000.28
2023-03-13T12:40:02.900Z,1000.22
2023-03-13T12:45:03.638Z,1000.2
2023-03-13T12:50:03.368Z,999.99
2023-03-13T12:55:03.150Z,1000
2023-03-13T13:00:03.016Z,1000.03
2023-03-13T13:05:03.787Z,999.92
2023-03-13T13:10:02.774Z,999.88
2023-03-13T13:15:03.531Z,999.8
2023-03-13T13:20:03.770Z,999.72
2023-03-13T13:25:03.095Z,999.6
2023-03-13T13:30:02.967Z,999.62
2023-03-13T13:35:03.621Z,999.51
2023-03-13T13:40:04.089Z,999.48
2023-03-13T13:45:03.486Z,999.31
2023-03-13T13:50:03.153Z,999.34
2023-03-13T13:55:03.526Z,999.27
2023-03-13T14:00:03.066Z,999.25
2023-03-13T14:05:03.875Z,999.22
2023-03-13T14:10:02.759Z,999.31
2023-03-13T14:15:03.695Z,999.07
2023-03-13T14:20:03.324Z,999.12
2023-03-13T14:25:03.107Z,999.16
2023-03-13T14:30:02.879Z,999.08
2023-03-13T14:35:02.718Z,999.05
2023-03-13T14:40:02.730Z,998.93
2023-03-13T14:45:03.790Z,998.89
2023-03-13T14:50:03.320Z,998.89
2023-03-13T14:55:03.099Z,998.67
2023-03-13T15:00:03.750Z,998.68
2023-03-13T15:05:03.557Z,998.62
2023-03-13T15:10:03.600Z,998.56
2023-03-13T15:15:03.331Z,998.5
2023-03-13T15:20:03.240Z,998.39
2023-03-13T15:25:08.638Z,998.43
2023-03-13T15:30:03.374Z,998.41
2023-03-13T15:35:03.096Z,998.32
2023-03-13T15:40:03.015Z,998.28
2023-03-13T15:45:02.805Z,998.19
2023-03-13T15:50:03.459Z,997.94
2023-03-13T15:55:03.304Z,998.03
2023-03-13T16:00:03.144Z,998.04
2023-03-13T16:05:02.961Z,997.87
2023-03-13T16:10:02.766Z,997.86
2023-03-13T16:15:02.914Z,997.76
2023-03-13T16:20:03.870Z,997.7
2023-03-13T16:25:03.293Z,997.66
2023-03-13T16:30:03.086Z,997.44
2023-03-13T16:35:02.884Z,997.42
2023-03-13T16:40:04.016Z,997.35
2023-03-13T16:45:03.426Z,997.22
2023-03-13T16:50:03.611Z,997.21
2023-03-13T16:55:02.783Z,997.2
2023-03-13T17:00:03.184Z,997.18
2023-03-13T17:05:03.777Z,997.2
2023-03-13T17:10:03.865Z,997.26
2023-03-13T17:15:03.120Z,997.28
2023-03-13T17:20:03.342Z,997.22
2023-03-13T17:25:03.126Z,997.28
2023-03-13T17:30:02.992Z,997.22
2023-03-13T17:35:03.296Z,997.36
2023-03-13T17:40:02.765Z,997.31
2023-03-13T17:45:03.513Z,997.25
2023-03-13T17:50:03.284Z,997.24
2023-03-13T17:55:03.293Z,997.04
2023-03-13T18:00:03.645Z,997.13
2023-03-13T18:05:03.429Z,997.11
2023-03-13T18:10:03.176Z,997.17
2023-03-13T18:15:03.020Z,996.97
2023-03-13T18:20:02.773Z,996.82
2023-03-13T18:25:03.535Z,996.92
2023-03-13T18:30:03.403Z,996.74
2023-03-13T18:35:03.100Z,996.64
2023-03-13T18:40:02.889Z,996.62
2023-03-13T18:45:03.581Z,996.5
2023-03-13T18:50:03.581Z,996.4
2023-03-13T18:55:03.422Z,996.29
2023-03-13T19:00:03.586Z,996.27
2023-03-13T19:05:03.313Z,996.16
2023-03-13T19:10:03.501Z,996.13
2023-03-13T19:15:02.819Z,996.14
2023-03-13T19:20:03.558Z,996.03
2023-03-13T19:25:03.407Z,995.85
2023-03-13T19:30:03.297Z,995.8
2023-03-13T19:35:03.008Z,995.73
2023-03-13T19:40:02.735Z,995.72
2023-03-13T19:45:03.605Z,995.84
2023-03-13T19:50:03.418Z,995.84
2023-03-13T19:55:05.524Z,995.87
2023-03-13T20:00:02.861Z,995.72
2023-03-13T20:05:03.717Z,995.7
2023-03-13T20:10:03.540Z,995.79
2023-03-13T20:15:03.279Z,995.66
2023-03-13T20:20:02.972Z,995.73
2023-03-13T20:25:02.710Z,995.53
2023-03-13T20:30:03.424Z,995.62
2023-03-13T20:35:03.126Z,995.49
2023-03-13T20:40:02.872Z,995.66
2023-03-13T20:45:03.606Z,995.65
2023-03-13T20:50:03.295Z,995.5
2023-03-13T20:55:03.599Z,995.45
2023-03-13T21:00:03.612Z,995.56
2023-03-13T21:05:03.118Z,995.35
2023-03-13T21:10:02.908Z,995.43
2023-03-13T21:15:06.628Z,995.6
2023-03-13T21:20:03.771Z,995.63
2023-03-13T21:25:03.316Z,995.77
2023-03-13T21:30:03.134Z,995.73
2023-03-13T21:35:03.041Z,995.73
2023-03-13T21:40:02.894Z,995.69
2023-03-13T21:45:02.770Z,995.75
2023-03-13T21:50:03.628Z,995.76
2023-03-13T21:55:03.652Z,995.84
2023-03-13T22:00:03.078Z,995.75
2023-03-13T22:05:02.671Z,995.57
2023-03-13T22:10:02.746Z,995.32
2023-03-13T22:15:03.736Z,995.25
2023-03-13T22:20:03.712Z,995
2023-03-13T22:25:03.214Z,994.52
2023-03-13T22:30:03.123Z,994.54
2023-03-13T22:35:03.434Z,994.97
2023-03-13T22:40:02.798Z,994.98
2023-03-13T22:45:03.115Z,995.03
2023-03-13T22:50:02.786Z,994.94
2023-03-13T22:55:04.034Z,994.77
2023-03-13T23:00:03.432Z,994.73
2023-03-13T23:05:03.212Z,994.73
2023-03-13T23:10:03.567Z,994.87
2023-03-13T23:15:03.473Z,994.88
2023-03-13T23:20:03.267Z,994.76
2023-03-13T23:25:03.204Z,994.76
2023-03-13T23:30:02.763Z,994.84
2023-03-13T23:35:02.731Z,994.87
2023-03-13T23:40:03.507Z,994.74
2023-03-13T23:45:03.531Z,994.73
2023-03-13T23:50:03.183Z,994.7
2023-03-13T23:55:03.429Z,994.5
